Time;durP1;ratioP1;P1;durP2;ratioP2;P2;SDS_P1;SDS_P2;PMS_P1;PMS_P2;Temp;Humidity;BMP_temperature;BMP_pressure;BME280_temperature;BME280_humidity;BME280_pressure;Samples;Min_cycle;Max_cycle;Signal;HPM_P1;HPM_P2
2022/04/04 00:02:45;;;;;;;9.93;5.12;;;0.30;99.90;;;;;;7247412;32;20100;-59
2022/04/04 00:06:47;;;;;;;8.07;6.20;;;0.30;99.90;;;;;;7245930;32;20437;-58
2022/04/04 00:10:48;;;;;;;7.68;6.05;;;0.30;99.90;;;;;;7249731;32;20109;-59
2022/04/04 00:14:50;;;;;;;6.12;5.00;;;0.20;99.90;;;;;;7249569;32;20195;-59
2022/04/04 00:18:52;;;;;;;8.77;5.32;;;0.20;99.90;;;;;;7245284;32;20155;-60
2022/04/04 00:22:54;;;;;;;7.03;5.22;;;0.40;99.90;;;;;;7228543;32;20123;-59
2022/04/04 00:26:55;;;;;;;6.50;5.37;;;0.20;99.90;;;;;;7242248;32;20510;-59
2022/04/04 00:30:57;;;;;;;6.40;4.82;;;0.30;99.90;;;;;;7244726;32;20210;-59
2022/04/04 00:35:00;;;;;;;8.30;5.80;;;0.20;99.90;;;;;;7242476;32;20147;-60
2022/04/04 00:39:02;;;;;;;7.97;5.95;;;0.20;99.90;;;;;;7241887;32;20267;-60
2022/04/04 00:43:04;;;;;;;7.35;5.82;;;0.10;99.90;;;;;;7242913;32;20112;-60
2022/04/04 00:47:07;;;;;;;7.60;6.15;;;0.10;99.90;;;;;;7243481;32;20120;-59
2022/04/04 00:51:09;;;;;;;7.28;6.18;;;0.10;99.90;;;;;;7242902;32;20109;-58
2022/04/04 00:55:11;;;;;;;7.53;5.90;;;0.10;99.90;;;;;;7238696;32;20654;-60
2022/04/04 00:59:16;;;;;;;9.05;5.87;;;0.10;99.90;;;;;;7242981;32;20219;-59
2022/04/04 01:03:18;;;;;;;7.00;5.50;;;0.10;99.90;;;;;;7244259;32;20108;-58
2022/04/04 01:07:20;;;;;;;7.43;5.87;;;0.10;99.90;;;;;;7228011;32;20207;-58
2022/04/04 01:11:22;;;;;;;6.62;5.70;;;0.10;99.90;;;;;;7244461;32;20100;-59
2022/04/04 01:15:30;;;;;;;8.40;6.10;;;0.00;99.90;;;;;;7240818;32;20138;-58
2022/04/04 01:19:32;;;;;;;9.25;6.15;;;0.20;99.90;;;;;;7241524;32;20498;-58
2022/04/04 01:23:43;;;;;;;11.75;6.90;;;0.40;99.90;;;;;;7241402;32;20675;-59
2022/04/04 01:27:45;;;;;;;7.93;6.32;;;0.50;99.90;;;;;;7241293;32;20127;-59
2022/04/04 01:31:48;;;;;;;11.25;7.18;;;0.60;99.90;;;;;;7240448;32;20138;-59
2022/04/04 01:35:50;;;;;;;13.13;6.43;;;0.70;99.90;;;;;;7244520;32;20104;-59
2022/04/04 01:39:51;;;;;;;10.60;6.72;;;0.90;99.90;;;;;;7239549;32;20105;-58
2022/04/04 01:43:53;;;;;;;10.45;6.20;;;0.90;99.90;;;;;;7238366;32;20834;-58
2022/04/04 01:47:55;;;;;;;7.97;6.32;;;0.90;99.90;;;;;;7238299;32;20242;-59
2022/04/04 01:51:56;;;;;;;10.40;5.93;;;0.90;99.90;;;;;;7237093;32;20290;-59
2022/04/04 01:56:01;;;;;;;9.10;5.55;;;1.00;99.90;;;;;;7239750;32;20108;-59
2022/04/04 02:00:04;;;;;;;9.25;5.53;;;1.10;99.90;;;;;;7239637;32;20120;-60
2022/04/04 02:04:09;;;;;;;7.68;4.87;;;1.20;99.90;;;;;;7238763;32;20224;-60
2022/04/04 02:08:10;;;;;;;9.30;5.43;;;1.10;99.90;;;;;;7237039;32;20634;-59
2022/04/04 02:12:12;;;;;;;8.73;5.18;;;1.30;99.90;;;;;;7238273;32;20358;-59
2022/04/04 02:16:14;;;;;;;8.02;5.53;;;1.30;99.90;;;;;;7235323;32;20188;-59
2022/04/04 02:20:16;;;;;;;8.55;5.18;;;1.30;99.90;;;;;;7238044;32;20738;-59
2022/04/04 02:24:17;;;;;;;9.70;5.37;;;1.40;99.90;;;;;;7231178;32;20274;-59
2022/04/04 02:28:19;;;;;;;8.38;5.85;;;1.50;99.90;;;;;;7242304;32;20158;-58
2022/04/04 02:32:21;;;;;;;7.85;5.12;;;1.70;99.90;;;;;;7241171;32;20214;-59
2022/04/04 02:36:22;;;;;;;7.60;4.87;;;2.00;99.90;;;;;;7240990;32;20357;-59
2022/04/04 02:40:24;;;;;;;7.75;5.65;;;2.00;99.90;;;;;;7242236;32;20127;-60
2022/04/04 02:44:27;;;;;;;10.75;6.07;;;2.00;99.90;;;;;;7238022;32;20105;-60
2022/04/04 02:48:28;;;;;;;12.37;6.03;;;2.10;99.90;;;;;;7237301;32;20156;-60
2022/04/04 02:52:30;;;;;;;12.82;6.43;;;2.20;99.90;;;;;;7238084;32;20525;-59
2022/04/04 02:56:32;;;;;;;9.90;6.65;;;2.30;99.90;;;;;;7236955;32;20150;-59
2022/04/04 03:00:34;;;;;;;13.93;7.62;;;2.30;99.90;;;;;;7240686;32;20485;-58
2022/04/04 03:04:39;;;;;;;8.10;5.97;;;2.40;99.90;;;;;;7237483;32;20587;-59
2022/04/04 03:08:41;;;;;;;8.45;5.57;;;2.50;99.90;;;;;;7235666;32;20222;-59
2022/04/04 03:12:48;;;;;;;9.98;6.70;;;2.50;99.90;;;;;;7239807;32;20100;-59
2022/04/04 03:16:50;;;;;;;9.10;6.37;;;2.50;99.90;;;;;;7244424;32;20159;-59
2022/04/04 03:20:52;;;;;;;11.35;6.90;;;2.60;99.90;;;;;;7239828;32;20246;-59
2022/04/04 03:24:54;;;;;;;10.25;6.47;;;2.60;99.90;;;;;;7240694;32;20196;-59
2022/04/04 03:28:56;;;;;;;10.80;6.25;;;2.60;99.90;;;;;;7242330;32;20171;-59
2022/04/04 03:32:58;;;;;;;11.75;6.57;;;2.70;99.90;;;;;;7240021;32;20104;-59
2022/04/04 03:37:00;;;;;;;9.95;6.72;;;2.70;99.90;;;;;;7239964;32;20565;-60
2022/04/04 03:41:01;;;;;;;13.98;6.57;;;2.70;99.90;;;;;;7245341;32;20258;-59
2022/04/04 03:45:04;;;;;;;11.20;7.30;;;2.80;99.90;;;;;;7246356;32;20139;-59
2022/04/04 03:49:07;;;;;;;12.37;6.80;;;2.70;99.90;;;;;;7244485;32;20119;-59
2022/04/04 03:53:09;;;;;;;9.35;7.30;;;2.70;99.90;;;;;;7247287;32;20750;-59
2022/04/04 03:57:11;;;;;;;10.60;7.82;;;2.70;99.90;;;;;;7243245;32;20151;-59
2022/04/04 04:01:12;;;;;;;11.45;7.20;;;2.70;99.90;;;;;;7246931;32;20133;-58
2022/04/04 04:05:14;;;;;;;15.55;7.65;;;2.70;99.90;;;;;;7242674;32;20740;-59
2022/04/04 04:09:16;;;;;;;9.40;7.20;;;2.60;99.90;;;;;;7246724;32;20128;-59
2022/04/04 04:13:17;;;;;;;15.38;7.47;;;2.70;99.90;;;;;;7246754;32;20506;-59
2022/04/04 04:17:21;;;;;;;14.98;7.07;;;2.70;99.90;;;;;;7241820;32;20135;-57
2022/04/04 04:21:23;;;;;;;11.27;7.72;;;2.60;99.90;;;;;;7244474;32;20222;-59
2022/04/04 04:25:29;;;;;;;11.12;7.55;;;2.60;99.90;;;;;;7246039;32;20129;-59
2022/04/04 04:29:30;;;;;;;13.70;8.45;;;2.60;99.90;;;;;;7245261;32;20104;-59
2022/04/04 04:33:32;;;;;;;17.20;9.52;;;2.60;99.90;;;;;;7246224;32;21612;-58
2022/04/04 04:37:34;;;;;;;13.18;7.72;;;2.70;99.90;;;;;;7243976;32;20114;-57
2022/04/04 04:41:36;;;;;;;11.35;7.12;;;2.70;99.90;;;;;;7245580;32;20093;-59
2022/04/04 04:45:38;;;;;;;11.43;6.95;;;2.80;99.90;;;;;;7244822;32;20247;-60
2022/04/04 04:49:39;;;;;;;12.07;7.72;;;2.80;99.90;;;;;;7243082;32;20123;-59
2022/04/04 04:53:41;;;;;;;12.23;6.65;;;2.80;99.90;;;;;;7244969;32;20209;-59
2022/04/04 04:57:43;;;;;;;11.75;6.30;;;2.90;99.90;;;;;;7242980;32;20147;-59
2022/04/04 05:01:44;;;;;;;14.15;7.60;;;2.80;99.90;;;;;;7244028;32;20147;-60
2022/04/04 05:05:46;;;;;;;12.82;7.07;;;2.90;99.90;;;;;;7239980;32;20113;-59
2022/04/04 05:09:48;;;;;;;13.43;7.07;;;2.80;99.90;;;;;;7242840;32;20681;-59
2022/04/04 05:13:50;;;;;;;16.42;8.23;;;2.90;99.90;;;;;;7240218;32;20121;-60
2022/04/04 05:17:52;;;;;;;13.95;6.90;;;2.90;99.90;;;;;;7236082;32;20282;-60
2022/04/04 05:21:53;;;;;;;15.27;6.85;;;2.90;99.90;;;;;;7252424;32;20477;-61
2022/04/04 05:25:55;;;;;;;11.73;6.65;;;2.90;99.90;;;;;;7247132;32;20103;-61
2022/04/04 05:29:57;;;;;;;15.07;7.22;;;3.00;99.90;;;;;;7242275;32;20120;-61
2022/04/04 05:33:59;;;;;;;13.85;6.60;;;3.10;99.90;;;;;;7244390;32;20445;-60
2022/04/04 05:38:01;;;;;;;14.38;6.55;;;3.10;99.90;;;;;;7244899;32;20238;-62
2022/04/04 05:42:03;;;;;;;16.50;6.47;;;3.20;99.90;;;;;;7236982;32;20135;-61
2022/04/04 05:46:05;;;;;;;11.70;5.97;;;3.30;99.90;;;;;;7240595;32;20104;-60
2022/04/04 05:50:07;;;;;;;10.57;6.07;;;3.30;99.90;;;;;;7243911;32;20131;-60
2022/04/04 05:54:09;;;;;;;11.93;5.95;;;3.40;99.90;;;;;;7243959;32;20879;-60
2022/04/04 05:58:11;;;;;;;12.23;6.03;;;3.50;99.90;;;;;;7246000;32;20136;-60
2022/04/04 06:02:13;;;;;;;9.60;5.07;;;3.50;99.90;;;;;;7241642;32;20510;-62
2022/04/04 06:06:20;;;;;;;12.82;5.55;;;3.50;99.90;;;;;;7242281;32;20128;-60
2022/04/04 06:10:22;;;;;;;12.75;5.65;;;3.60;99.90;;;;;;7242092;32;20638;-61
2022/04/04 06:14:23;;;;;;;12.25;6.43;;;3.70;99.90;;;;;;7245354;32;20191;-61
2022/04/04 06:18:25;;;;;;;15.23;5.12;;;3.80;99.90;;;;;;7244169;32;20105;-62
2022/04/04 06:22:27;;;;;;;10.75;5.18;;;3.90;99.90;;;;;;7244587;32;20108;-60
2022/04/04 06:26:30;;;;;;;7.62;5.53;;;3.90;99.90;;;;;;7234262;32;20092;-59
2022/04/04 06:30:32;;;;;;;9.15;5.10;;;3.90;99.90;;;;;;7240401;32;20227;-60
2022/04/04 06:34:33;;;;;;;10.00;5.12;;;4.10;99.90;;;;;;7239938;32;20101;-59
2022/04/04 06:38:40;;;;;;;11.00;5.05;;;4.10;99.90;;;;;;7238760;32;20211;-59
2022/04/04 06:42:43;;;;;;;9.57;5.32;;;4.10;99.90;;;;;;7240080;32;20229;-59
2022/04/04 06:46:45;;;;;;;9.18;4.93;;;4.10;99.90;;;;;;7243940;32;20709;-60
2022/04/04 06:50:47;;;;;;;9.70;5.68;;;4.10;99.90;;;;;;7246099;32;20231;-60
2022/04/04 06:54:48;;;;;;;10.02;5.55;;;4.20;99.90;;;;;;7244317;32;20192;-60
2022/04/04 06:58:52;;;;;;;10.00;5.25;;;4.40;99.90;;;;;;7242719;32;20105;-59
2022/04/04 07:02:55;;;;;;;11.02;5.00;;;4.70;99.90;;;;;;7242827;32;20127;-59
2022/04/04 07:06:58;;;;;;;6.53;5.32;;;4.80;99.90;;;;;;7236808;32;20127;-61
2022/04/04 07:11:00;;;;;;;8.38;4.72;;;4.80;99.90;;;;;;7238181;32;20215;-60
2022/04/04 07:15:03;;;;;;;10.52;5.43;;;5.00;99.90;;;;;;7234230;32;20183;-60
2022/04/04 07:19:05;;;;;;;6.65;4.97;;;5.10;99.90;;;;;;7245428;32;20457;-60
2022/04/04 07:23:06;;;;;;;8.13;5.40;;;5.30;99.90;;;;;;7243971;32;20172;-59
2022/04/04 07:27:08;;;;;;;7.57;4.78;;;5.30;99.90;;;;;;7245847;32;20882;-59
2022/04/04 07:31:10;;;;;;;11.02;4.62;;;5.40;99.90;;;;;;7243706;32;20223;-60
2022/04/04 07:35:12;;;;;;;12.13;5.93;;;5.60;99.90;;;;;;7244089;32;20246;-60
2022/04/04 07:39:14;;;;;;;8.30;5.20;;;5.70;99.90;;;;;;7241983;32;20179;-59
2022/04/04 07:43:15;;;;;;;8.13;5.15;;;6.00;99.90;;;;;;7243950;32;20100;-59
2022/04/04 07:47:18;;;;;;;12.50;5.30;;;6.10;99.90;;;;;;7243289;32;20152;-60
2022/04/04 07:51:20;;;;;;;9.73;4.70;;;6.40;99.90;;;;;;7245033;32;20101;-59
2022/04/04 07:55:21;;;;;;;8.20;4.62;;;6.30;99.90;;;;;;7245090;32;20136;-59
2022/04/04 07:59:24;;;;;;;8.43;4.55;;;6.30;99.90;;;;;;7244037;32;20097;-60
2022/04/04 08:03:25;;;;;;;9.57;4.65;;;6.30;99.90;;;;;;7241362;32;20153;-59
2022/04/04 08:07:28;;;;;;;10.00;4.12;;;6.30;99.90;;;;;;7241221;32;20192;-59
2022/04/04 08:11:29;;;;;;;7.40;4.37;;;6.30;99.90;;;;;;7231415;32;20116;-59
2022/04/04 08:15:31;;;;;;;12.00;5.10;;;6.40;99.90;;;;;;7238862;32;20097;-59
2022/04/04 08:19:33;;;;;;;7.25;4.43;;;6.40;99.90;;;;;;7240284;32;20199;-59
2022/04/04 08:23:34;;;;;;;8.63;4.65;;;6.40;99.90;;;;;;7240688;32;20100;-59
2022/04/04 08:27:37;;;;;;;8.50;4.20;;;6.40;99.90;;;;;;7244484;32;20512;-60
2022/04/04 08:31:39;;;;;;;8.85;4.75;;;6.60;99.90;;;;;;7237940;32;20105;-60
2022/04/04 08:35:41;;;;;;;8.10;4.45;;;6.60;99.90;;;;;;7244819;32;20115;-59
2022/04/04 08:39:47;;;;;;;13.45;4.78;;;6.70;99.90;;;;;;7243949;32;20195;-59
2022/04/04 08:43:51;;;;;;;12.27;5.10;;;6.60;99.90;;;;;;7242847;32;20231;-60
2022/04/04 08:47:54;;;;;;;7.72;3.80;;;6.70;99.90;;;;;;7241866;32;20101;-59
2022/04/04 08:51:56;;;;;;;8.70;4.07;;;6.70;99.90;;;;;;7239786;32;20101;-59
2022/04/04 08:55:58;;;;;;;10.20;4.20;;;6.80;99.90;;;;;;7241774;32;20610;-60
2022/04/04 08:59:59;;;;;;;16.37;4.68;;;6.80;99.90;;;;;;7244910;32;20120;-59
2022/04/04 09:04:01;;;;;;;19.17;6.15;;;6.90;99.90;;;;;;7241795;32;20151;-59
2022/04/04 09:08:07;;;;;;;11.98;4.12;;;6.90;99.90;;;;;;7239508;32;20128;-60
2022/04/04 09:12:10;;;;;;;6.80;3.90;;;7.00;99.90;;;;;;7232805;32;20179;-61
2022/04/04 09:16:12;;;;;;;7.57;4.22;;;6.90;99.90;;;;;;7241548;32;20186;-60
2022/04/04 09:20:16;;;;;;;20.00;4.68;;;6.90;99.90;;;;;;7238490;32;20195;-59
2022/04/04 09:24:17;;;;;;;8.23;4.35;;;7.00;99.90;;;;;;7247667;32;20116;-60
2022/04/04 09:28:19;;;;;;;11.23;4.78;;;7.20;99.90;;;;;;7240644;32;20104;-60
2022/04/04 09:32:22;;;;;;;8.48;4.20;;;7.20;99.90;;;;;;7244250;32;20175;-58
2022/04/04 09:36:24;;;;;;;10.52;4.47;;;7.10;99.90;;;;;;7244452;32;20543;-59
2022/04/04 09:40:32;;;;;;;13.85;4.70;;;7.00;99.90;;;;;;7243259;32;20115;-63
2022/04/04 09:44:34;;;;;;;8.85;4.00;;;7.10;99.90;;;;;;7238865;32;20143;-59
2022/04/04 09:48:36;;;;;;;12.68;4.03;;;7.10;99.90;;;;;;7241206;32;20207;-59
2022/04/04 09:52:50;;;;;;;9.85;4.40;;;7.00;99.90;;;;;;7243983;32;20108;-60
2022/04/04 09:57:20;;;;;;;9.98;4.57;;;6.90;99.90;;;;;;7242962;32;20264;-60
2022/04/04 10:01:21;;;;;;;8.52;4.93;;;6.90;99.90;;;;;;7242165;32;20108;-60
2022/04/04 10:05:25;;;;;;;8.32;5.03;;;6.90;99.90;;;;;;7242009;32;20329;-59
2022/04/04 10:09:28;;;;;;;7.60;4.20;;;6.90;99.90;;;;;;7239916;32;20105;-61
2022/04/04 10:13:31;;;;;;;6.15;5.22;;;6.80;99.90;;;;;;7239624;32;20403;-60
2022/04/04 10:17:32;;;;;;;8.00;4.72;;;6.80;99.90;;;;;;7233755;32;20882;-62
2022/04/04 10:21:34;;;;;;;7.62;5.62;;;6.70;99.90;;;;;;7242178;32;20598;-60
2022/04/04 10:25:35;;;;;;;6.12;4.30;;;6.70;99.90;;;;;;7242120;32;20468;-64
2022/04/04 10:29:39;;;;;;;7.53;6.03;;;6.60;99.90;;;;;;7240475;32;20183;-60
2022/04/04 10:33:42;;;;;;;8.05;5.95;;;6.60;99.90;;;;;;7241071;32;21100;-58
2022/04/04 10:37:44;;;;;;;10.25;6.45;;;6.50;99.90;;;;;;7240591;32;20563;-60
2022/04/04 10:41:47;;;;;;;8.48;6.18;;;6.40;99.90;;;;;;7240692;32;20144;-60
2022/04/04 10:46:01;;;;;;;10.82;6.32;;;6.20;99.90;;;;;;7234241;32;20219;-62
2022/04/04 10:50:30;;;;;;;9.70;6.87;;;6.10;99.90;;;;;;7240784;32;20361;-60
2022/04/04 10:54:31;;;;;;;10.77;6.85;;;6.00;99.90;;;;;;7246038;32;21072;-60
2022/04/04 10:58:33;;;;;;;10.35;7.15;;;5.90;99.90;;;;;;7245589;32;20187;-61
2022/04/04 11:02:35;;;;;;;10.20;7.85;;;5.90;99.90;;;;;;7244336;32;20131;-64
2022/04/04 11:10:58;;;;;;;11.38;8.32;;;5.60;99.90;;;;;;7244388;32;20694;-61
2022/04/04 11:15:07;;;;;;;12.52;8.23;;;5.50;99.90;;;;;;7244384;32;20370;-61
2022/04/04 11:19:15;;;;;;;14.13;8.63;;;5.40;99.90;;;;;;7245488;32;20173;-60
2022/04/04 11:23:20;;;;;;;15.95;9.38;;;5.40;99.90;;;;;;7243729;32;20108;-60
2022/04/04 11:27:25;;;;;;;13.75;9.88;;;5.40;99.90;;;;;;7243490;32;20105;-62
2022/04/04 11:31:27;;;;;;;13.13;9.80;;;5.40;99.90;;;;;;7244519;32;20124;-59
2022/04/04 11:35:31;;;;;;;12.07;9.82;;;5.30;99.90;;;;;;7245991;32;20150;-59
2022/04/04 11:39:32;;;;;;;18.98;9.73;;;5.30;99.90;;;;;;7244695;32;20230;-61
2022/04/04 11:43:40;;;;;;;10.07;8.30;;;5.20;99.90;;;;;;7245555;32;20105;-60
2022/04/04 11:47:58;;;;;;;15.10;9.15;;;5.10;99.90;;;;;;7242998;32;20104;-59
2022/04/04 11:52:04;;;;;;;13.75;8.85;;;5.10;99.90;;;;;;7244803;32;20109;-59
2022/04/04 11:56:10;;;;;;;15.38;9.10;;;4.80;99.90;;;;;;7244083;32;20197;-61
2022/04/04 12:00:16;;;;;;;10.98;8.40;;;4.80;99.90;;;;;;7240925;32;20559;-59
2022/04/04 12:04:18;;;;;;;12.60;10.25;;;4.60;99.90;;;;;;7242238;32;20144;-58
2022/04/04 12:08:21;;;;;;;15.30;10.10;;;4.50;99.90;;;;;;7244714;32;20171;-59
2022/04/04 12:12:29;;;;;;;15.68;11.12;;;4.50;99.90;;;;;;7243293;32;20120;-58
2022/04/04 12:16:32;;;;;;;19.55;11.10;;;4.40;99.90;;;;;;7242837;32;20230;-59
2022/04/04 12:20:41;;;;;;;16.00;11.35;;;4.40;99.90;;;;;;7240782;32;20169;-59
2022/04/04 12:25:17;;;;;;;11.65;10.30;;;4.50;99.90;;;;;;7241885;32;20129;-60
2022/04/04 12:29:12;;;;;;;;;;;4.50;99.90;;;;;;7233018;32;20140;-59
2022/04/04 12:33:15;;;;;;;18.95;11.65;;;4.40;99.90;;;;;;7240724;32;20083;-62
2022/04/04 12:37:17;;;;;;;13.45;9.93;;;4.40;99.90;;;;;;7241227;32;20116;-58
2022/04/04 12:41:18;;;;;;;17.65;11.40;;;4.40;99.90;;;;;;7241753;32;20108;-63
2022/04/04 12:45:20;;;;;;;14.85;11.82;;;4.40;99.90;;;;;;7240625;32;20104;-61
2022/04/04 12:49:23;;;;;;;16.25;10.70;;;4.40;99.90;;;;;;7242105;32;20104;-60
2022/04/04 12:53:26;;;;;;;14.52;11.27;;;4.50;99.90;;;;;;7242339;32;20146;-61
2022/04/04 12:57:28;;;;;;;13.38;9.70;;;4.50;99.90;;;;;;7242375;32;20757;-61
2022/04/04 13:01:30;;;;;;;14.00;11.20;;;4.50;99.90;;;;;;7242278;32;20187;-59
2022/04/04 13:05:32;;;;;;;11.98;9.88;;;4.50;99.90;;;;;;7242112;32;20154;-59
2022/04/04 13:09:35;;;;;;;12.88;10.52;;;4.50;99.90;;;;;;7239985;32;20206;-58
2022/04/04 13:14:09;;;;;;;11.35;8.52;;;4.40;99.90;;;;;;7248393;32;20130;-60
2022/04/04 13:18:11;;;;;;;18.73;10.55;;;4.40;99.90;;;;;;7201182;32;20242;-60
2022/04/04 13:22:13;;;;;;;13.30;9.07;;;4.40;99.90;;;;;;7241898;32;20230;-60
2022/04/04 13:26:14;;;;;;;13.55;10.15;;;4.50;99.90;;;;;;7245126;32;20675;-61
2022/04/04 13:30:16;;;;;;;11.90;8.73;;;4.50;99.90;;;;;;7241496;32;20532;-60
2022/04/04 13:34:18;;;;;;;19.85;11.88;;;4.50;99.90;;;;;;7238686;32;20109;-61
2022/04/04 13:38:19;;;;;;;16.40;9.73;;;4.60;99.90;;;;;;7242669;32;20142;-60
2022/04/04 13:42:21;;;;;;;11.80;8.52;;;4.60;99.90;;;;;;7241710;32;20105;-59
2022/04/04 13:46:26;;;;;;;15.05;11.57;;;4.50;99.90;;;;;;7240413;32;20158;-59
2022/04/04 13:50:27;;;;;;;14.95;11.48;;;4.50;99.90;;;;;;7242089;32;20112;-55
2022/04/04 13:54:29;;;;;;;16.33;12.27;;;4.80;99.90;;;;;;7242978;32;20143;-58
2022/04/04 13:58:31;;;;;;;16.73;10.63;;;4.70;99.90;;;;;;7240096;32;20132;-59
2022/04/04 14:02:32;;;;;;;12.60;9.70;;;4.60;99.90;;;;;;7239575;32;20218;-59
2022/04/04 14:06:34;;;;;;;13.40;9.82;;;4.60;99.90;;;;;;7237773;32;20274;-59
2022/04/04 14:10:36;;;;;;;13.48;9.57;;;4.50;99.90;;;;;;7241370;32;20113;-58
2022/04/04 14:14:37;;;;;;;18.17;12.63;;;4.50;99.90;;;;;;7240166;32;20614;-60
2022/04/04 14:18:44;;;;;;;13.93;12.00;;;4.50;99.90;;;;;;7239524;32;20209;-59
2022/04/04 14:22:48;;;;;;;14.55;9.70;;;4.60;99.90;;;;;;7241241;32;20232;-59
2022/04/04 14:26:52;;;;;;;14.30;10.02;;;4.60;99.90;;;;;;7240882;32;20097;-59
2022/04/04 14:30:57;;;;;;;11.48;9.07;;;4.60;99.90;;;;;;7234917;32;20119;-59
2022/04/04 14:34:59;;;;;;;13.82;9.13;;;4.60;99.90;;;;;;7234725;32;20108;-58
2022/04/04 14:39:00;;;;;;;10.27;8.52;;;4.70;99.90;;;;;;7239702;32;20223;-60
2022/04/04 14:43:02;;;;;;;9.75;8.48;;;4.70;99.90;;;;;;7236742;32;20101;-58
2022/04/04 14:47:04;;;;;;;9.90;8.35;;;4.60;99.90;;;;;;7236279;32;20228;-59
2022/04/04 14:51:26;;;;;;;10.25;8.73;;;4.60;99.90;;;;;;7240100;32;20190;-61
2022/04/04 14:55:28;;;;;;;12.10;8.98;;;4.60;99.90;;;;;;7236989;32;20131;-59
2022/04/04 14:59:33;;;;;;;11.50;8.98;;;4.60;99.90;;;;;;7239908;32;20704;-59
2022/04/04 15:03:35;;;;;;;13.75;10.23;;;4.60;99.90;;;;;;7239239;32;20592;-60
2022/04/04 15:07:37;;;;;;;16.95;9.20;;;4.60;99.90;;;;;;7238444;32;20733;-61
2022/04/04 15:11:39;;;;;;;11.30;9.50;;;4.60;99.90;;;;;;7237633;32;20104;-58
2022/04/04 15:15:41;;;;;;;10.98;7.70;;;4.70;99.90;;;;;;7239413;32;20673;-60
2022/04/04 15:19:42;;;;;;;9.10;7.53;;;4.80;99.90;;;;;;7238888;32;20125;-60
2022/04/04 15:23:46;;;;;;;9.63;8.10;;;4.80;99.90;;;;;;7237636;32;20184;-57
2022/04/04 15:28:07;;;;;;;11.40;9.10;;;4.80;99.90;;;;;;7239935;32;20613;-58
2022/04/04 15:32:09;;;;;;;8.90;8.00;;;4.90;99.90;;;;;;7237954;32;20970;-60
2022/04/04 15:36:19;;;;;;;8.68;7.28;;;4.90;99.90;;;;;;7241286;32;20239;-59
2022/04/04 15:40:22;;;;;;;9.23;7.85;;;5.00;99.90;;;;;;7243332;32;20504;-60
2022/04/04 15:44:24;;;;;;;8.90;7.32;;;4.90;99.90;;;;;;7244352;32;20199;-59
2022/04/04 15:48:28;;;;;;;11.10;6.78;;;4.90;99.90;;;;;;7246190;32;20112;-60
2022/04/04 15:52:30;;;;;;;10.68;7.87;;;4.90;99.90;;;;;;7236838;32;20105;-59
2022/04/04 15:56:32;;;;;;;8.68;7.03;;;5.00;99.90;;;;;;7245694;32;20262;-59
2022/04/04 16:00:37;;;;;;;8.90;7.53;;;5.10;99.90;;;;;;7246135;32;20203;-59
2022/04/04 16:04:39;;;;;;;9.43;8.43;;;5.10;99.90;;;;;;7245183;32;20174;-62
2022/04/04 16:08:44;;;;;;;10.90;8.07;;;5.10;99.90;;;;;;7243673;32;20726;-59
2022/04/04 16:12:46;;;;;;;9.55;7.70;;;5.20;99.90;;;;;;7244210;32;20167;-60
2022/04/04 16:16:49;;;;;;;9.07;7.07;;;5.10;99.90;;;;;;7247152;32;20137;-60
2022/04/04 16:20:51;;;;;;;9.25;7.65;;;5.20;99.90;;;;;;7241476;32;20596;-62
2022/04/04 16:24:53;;;;;;;9.70;7.85;;;5.20;99.90;;;;;;7244935;32;20122;-59
2022/04/04 16:28:55;;;;;;;7.50;6.25;;;5.20;99.90;;;;;;7243823;32;20223;-60
2022/04/04 16:32:57;;;;;;;8.45;6.85;;;5.20;99.90;;;;;;7243990;32;20183;-60
2022/04/04 16:36:59;;;;;;;9.68;7.97;;;5.30;99.90;;;;;;7220402;32;20100;-60
2022/04/04 16:41:01;;;;;;;8.80;7.45;;;5.30;99.90;;;;;;7244650;32;20439;-63
2022/04/04 16:45:05;;;;;;;7.50;6.55;;;5.30;99.90;;;;;;7228001;32;20126;-61
2022/04/04 16:49:07;;;;;;;6.85;5.93;;;5.30;99.90;;;;;;7224620;32;20844;-61
2022/04/04 16:53:09;;;;;;;9.95;6.87;;;5.40;99.90;;;;;;7228121;32;20158;-60
2022/04/04 16:57:11;;;;;;;6.43;5.57;;;5.40;99.90;;;;;;7243485;32;20122;-61
2022/04/04 17:01:16;;;;;;;10.90;8.73;;;5.40;99.90;;;;;;7242198;32;20750;-60
2022/04/04 17:05:19;;;;;;;8.43;6.85;;;5.50;99.90;;;;;;7242799;32;20132;-60
2022/04/04 17:09:21;;;;;;;9.32;6.32;;;5.50;99.90;;;;;;7244060;32;20705;-60
2022/04/04 17:13:23;;;;;;;8.52;6.80;;;5.60;99.90;;;;;;7244481;32;20154;-60
2022/04/04 17:17:25;;;;;;;9.60;6.15;;;5.50;99.90;;;;;;7242284;32;20612;-59
2022/04/04 17:21:27;;;;;;;11.45;6.53;;;5.60;99.90;;;;;;7243127;32;20208;-60
2022/04/04 17:25:34;;;;;;;8.45;6.22;;;5.60;99.90;;;;;;7245686;32;20171;-59
2022/04/04 17:29:36;;;;;;;8.63;6.68;;;5.60;99.90;;;;;;7242392;32;20528;-61
2022/04/04 17:33:40;;;;;;;8.02;6.47;;;5.60;99.90;;;;;;7237896;32;20180;-60
2022/04/04 17:37:41;;;;;;;7.07;5.62;;;5.60;99.90;;;;;;7245874;32;20105;-59
2022/04/04 17:41:44;;;;;;;8.18;5.85;;;5.60;99.90;;;;;;7241111;32;20210;-60
2022/04/04 17:45:45;;;;;;;9.18;6.40;;;5.60;99.90;;;;;;7238611;32;20104;-61
2022/04/04 17:49:48;;;;;;;7.93;5.55;;;5.60;99.90;;;;;;7241421;32;20615;-61
2022/04/04 17:53:50;;;;;;;7.93;6.82;;;5.60;99.90;;;;;;7243746;32;20144;-60
2022/04/04 17:57:52;;;;;;;9.35;6.68;;;5.60;99.90;;;;;;7242508;32;20120;-60
2022/04/04 18:01:54;;;;;;;9.77;7.18;;;5.60;99.90;;;;;;7241878;32;20183;-61
2022/04/04 18:05:56;;;;;;;9.23;7.68;;;5.60;99.90;;;;;;7242416;32;20100;-61
2022/04/04 18:09:57;;;;;;;9.40;7.40;;;5.60;99.90;;;;;;7240509;32;20152;-60
2022/04/04 18:13:59;;;;;;;10.98;7.28;;;5.60;99.90;;;;;;7241388;32;20108;-61
2022/04/04 18:18:02;;;;;;;8.35;6.85;;;5.70;99.90;;;;;;7241932;32;20883;-61
2022/04/04 18:22:10;;;;;;;9.27;7.70;;;5.70;99.90;;;;;;7240657;32;20139;-59
2022/04/04 18:26:11;;;;;;;10.05;7.57;;;5.70;99.90;;;;;;7238308;32;20111;-60
2022/04/04 18:30:13;;;;;;;8.63;7.28;;;5.70;99.90;;;;;;7243669;32;20113;-58
2022/04/04 18:34:15;;;;;;;6.95;5.72;;;5.70;99.90;;;;;;7243490;32;20642;-60
2022/04/04 18:38:17;;;;;;;8.75;7.85;;;5.70;99.90;;;;;;7245631;32;20134;-61
2022/04/04 18:42:19;;;;;;;9.10;7.32;;;5.70;99.90;;;;;;7240642;32;20115;-60
2022/04/04 18:46:21;;;;;;;10.48;7.78;;;5.70;99.90;;;;;;7244895;32;20100;-61
2022/04/04 18:50:23;;;;;;;10.38;9.38;;;5.70;99.90;;;;;;7242818;32;20122;-60
2022/04/04 18:54:25;;;;;;;8.88;7.55;;;5.70;99.90;;;;;;7245083;32;20202;-62
2022/04/04 18:58:27;;;;;;;9.60;8.20;;;5.80;99.90;;;;;;7241176;32;20342;-61
2022/04/04 19:02:28;;;;;;;12.00;10.27;;;5.80;99.90;;;;;;7244867;32;20166;-60
2022/04/04 19:06:30;;;;;;;10.27;9.15;;;5.80;99.90;;;;;;7241574;32;20119;-60
2022/04/04 19:10:32;;;;;;;9.88;8.88;;;5.80;99.90;;;;;;7239118;32;20115;-60
2022/04/04 19:14:34;;;;;;;11.38;10.18;;;5.80;99.90;;;;;;7246395;32;20597;-59
2022/04/04 19:18:36;;;;;;;9.40;8.40;;;5.90;99.90;;;;;;7243716;32;20120;-63
2022/04/04 19:22:38;;;;;;;10.65;9.55;;;5.90;99.90;;;;;;7245784;32;20410;-61
2022/04/04 19:26:40;;;;;;;12.02;9.70;;;5.90;99.90;;;;;;7247306;32;20105;-60
2022/04/04 19:30:42;;;;;;;11.60;10.48;;;5.90;99.90;;;;;;7232633;32;20419;-60
2022/04/04 19:34:43;;;;;;;11.32;9.82;;;5.90;99.90;;;;;;7243462;32;20123;-61
2022/04/04 19:38:45;;;;;;;11.38;10.15;;;6.00;99.90;;;;;;7252699;32;20191;-61
2022/04/04 19:42:47;;;;;;;11.15;10.02;;;6.00;99.90;;;;;;7243956;32;21037;-60
2022/04/04 19:46:48;;;;;;;10.50;9.40;;;6.00;99.90;;;;;;7246730;32;20206;-60
2022/04/04 19:50:50;;;;;;;11.12;7.70;;;6.00;99.90;;;;;;7234560;32;20627;-59
2022/04/04 19:54:53;;;;;;;11.15;9.95;;;6.00;99.90;;;;;;7240064;32;20934;-61
2022/04/04 19:58:56;;;;;;;11.68;10.23;;;6.00;99.90;;;;;;7245867;32;20560;-60
2022/04/04 20:02:57;;;;;;;10.35;9.35;;;6.10;99.90;;;;;;7252084;32;20480;-62
2022/04/04 20:06:59;;;;;;;10.07;9.07;;;6.10;99.90;;;;;;7247550;32;20171;-60
2022/04/04 20:11:01;;;;;;;11.80;10.60;;;6.10;99.90;;;;;;7246176;32;20187;-61
2022/04/04 20:15:04;;;;;;;11.82;9.98;;;6.10;99.90;;;;;;7245512;32;20123;-60
2022/04/04 20:19:06;;;;;;;10.90;9.80;;;6.10;99.90;;;;;;7247485;32;20320;-63
2022/04/04 20:23:08;;;;;;;10.32;8.73;;;6.20;99.90;;;;;;7248042;32;20147;-61
2022/04/04 20:27:09;;;;;;;10.27;9.27;;;6.20;99.90;;;;;;7245277;32;20104;-63
2022/04/04 20:31:11;;;;;;;10.73;9.65;;;6.20;99.90;;;;;;7247045;32;20104;-61
2022/04/04 20:35:13;;;;;;;11.40;10.27;;;6.20;99.90;;;;;;7251308;32;20158;-61
2022/04/04 20:39:15;;;;;;;13.77;11.68;;;6.20;99.90;;;;;;7243594;32;20818;-61
2022/04/04 20:43:17;;;;;;;11.75;10.55;;;6.30;99.90;;;;;;7247938;32;20132;-61
2022/04/04 20:47:18;;;;;;;12.02;10.82;;;6.30;99.90;;;;;;7244602;32;20096;-61
2022/04/04 20:51:21;;;;;;;9.60;8.57;;;6.30;99.90;;;;;;7243653;32;20108;-60
2022/04/04 20:55:23;;;;;;;11.90;10.52;;;6.40;99.90;;;;;;7244102;32;20191;-60
2022/04/04 20:59:24;;;;;;;11.35;10.15;;;6.40;99.90;;;;;;7245919;32;20468;-60
2022/04/04 21:03:26;;;;;;;10.77;9.73;;;6.40;99.90;;;;;;7242313;32;20226;-63
2022/04/04 21:07:29;;;;;;;9.80;8.80;;;6.40;99.90;;;;;;7245791;32;20171;-61
2022/04/04 21:11:33;;;;;;;9.00;8.10;;;6.50;99.90;;;;;;7239679;32;20749;-61
2022/04/04 21:15:34;;;;;;;10.93;9.88;;;6.50;99.90;;;;;;7241297;32;20119;-61